sensor_id;sensor_type;location;lat;lon;timestamp;P1;durP1;ratioP1;P2;durP2;ratioP2
35592;SDS011;64447;52.140;5.602;2023-11-19T00:02:13;19.10;;;10.65;;
35592;SDS011;64447;52.140;5.602;2023-11-19T00:04:39;18.23;;;12.20;;
35592;SDS011;64447;52.140;5.602;2023-11-19T00:07:05;21.88;;;11.45;;
35592;SDS011;64447;52.140;5.602;2023-11-19T00:09:35;18.02;;;11.15;;
35592;SDS011;64447;52.140;5.602;2023-11-19T00:12:03;23.42;;;11.60;;
35592;SDS011;64447;52.140;5.602;2023-11-19T00:14:29;16.65;;;11.65;;
35592;SDS011;64447;52.140;5.602;2023-11-19T00:16:55;25.13;;;12.18;;
35592;SDS011;64447;52.140;5.602;2023-11-19T00:19:21;22.45;;;12.25;;
35592;SDS011;64447;52.140;5.602;2023-11-19T00:21:47;22.77;;;11.57;;
35592;SDS011;64447;52.140;5.602;2023-11-19T00:24:13;22.20;;;12.05;;
35592;SDS011;64447;52.140;5.602;2023-11-19T00:26:41;17.65;;;10.75;;
35592;SDS011;64447;52.140;5.602;2023-11-19T00:29:07;19.38;;;11.50;;
35592;SDS011;64447;52.140;5.602;2023-11-19T00:31:33;18.67;;;10.50;;
35592;SDS011;64447;52.140;5.602;2023-11-19T00:33:58;23.33;;;10.18;;
35592;SDS011;64447;52.140;5.602;2023-11-19T00:36:24;21.33;;;9.25;;
35592;SDS011;64447;52.140;5.602;2023-11-19T00:38:50;26.75;;;9.27;;
35592;SDS011;64447;52.140;5.602;2023-11-19T00:41:17;20.13;;;9.13;;
35592;SDS011;64447;52.140;5.602;2023-11-19T00:43:43;18.80;;;8.90;;
35592;SDS011;64447;52.140;5.602;2023-11-19T00:46:09;18.15;;;9.30;;
35592;SDS011;64447;52.140;5.602;2023-11-19T00:48:38;20.48;;;9.77;;
35592;SDS011;64447;52.140;5.602;2023-11-19T00:51:05;17.08;;;8.52;;
35592;SDS011;64447;52.140;5.602;2023-11-19T00:53:31;22.08;;;9.02;;
35592;SDS011;64447;52.140;5.602;2023-11-19T00:55:57;16.65;;;9.00;;
35592;SDS011;64447;52.140;5.602;2023-11-19T00:58:23;25.73;;;9.73;;
35592;SDS011;64447;52.140;5.602;2023-11-19T01:00:48;20.23;;;8.63;;
35592;SDS011;64447;52.140;5.602;2023-11-19T01:03:14;26.38;;;9.48;;
35592;SDS011;64447;52.140;5.602;2023-11-19T01:05:41;21.02;;;8.45;;
35592;SDS011;64447;52.140;5.602;2023-11-19T01:08:07;24.50;;;8.50;;
35592;SDS011;64447;52.140;5.602;2023-11-19T01:10:33;21.88;;;8.13;;
35592;SDS011;64447;52.140;5.602;2023-11-19T01:12:59;22.63;;;7.45;;
35592;SDS011;64447;52.140;5.602;2023-11-19T01:15:25;26.77;;;8.10;;
35592;SDS011;64447;52.140;5.602;2023-11-19T01:17:51;22.90;;;7.80;;
35592;SDS011;64447;52.140;5.602;2023-11-19T01:20:16;21.80;;;7.57;;
35592;SDS011;64447;52.140;5.602;2023-11-19T01:22:42;25.95;;;7.93;;
35592;SDS011;64447;52.140;5.602;2023-11-19T01:25:08;22.23;;;7.55;;
35592;SDS011;64447;52.140;5.602;2023-11-19T01:27:34;24.05;;;7.22;;
35592;SDS011;64447;52.140;5.602;2023-11-19T01:30:01;24.70;;;6.75;;
35592;SDS011;64447;52.140;5.602;2023-11-19T01:32:30;23.20;;;6.68;;
35592;SDS011;64447;52.140;5.602;2023-11-19T01:34:56;27.42;;;8.00;;
35592;SDS011;64447;52.140;5.602;2023-11-19T01:37:22;22.70;;;8.13;;
35592;SDS011;64447;52.140;5.602;2023-11-19T01:39:48;28.08;;;7.40;;
35592;SDS011;64447;52.140;5.602;2023-11-19T01:42:13;23.27;;;6.75;;
35592;SDS011;64447;52.140;5.602;2023-11-19T01:44:40;24.25;;;7.65;;
35592;SDS011;64447;52.140;5.602;2023-11-19T01:47:06;25.20;;;7.22;;
35592;SDS011;64447;52.140;5.602;2023-11-19T01:49:32;26.75;;;7.63;;
35592;SDS011;64447;52.140;5.602;2023-11-19T01:51:58;30.98;;;7.72;;
35592;SDS011;64447;52.140;5.602;2023-11-19T01:54:24;26.80;;;7.00;;
35592;SDS011;64447;52.140;5.602;2023-11-19T01:56:50;26.95;;;7.60;;
35592;SDS011;64447;52.140;5.602;2023-11-19T01:59:18;31.15;;;7.07;;
35592;SDS011;64447;52.140;5.602;2023-11-19T02:01:51;29.42;;;7.20;;
35592;SDS011;64447;52.140;5.602;2023-11-19T02:04:17;29.40;;;6.85;;
35592;SDS011;64447;52.140;5.602;2023-11-19T02:06:43;30.27;;;6.85;;
35592;SDS011;64447;52.140;5.602;2023-11-19T02:09:12;32.92;;;8.57;;
35592;SDS011;64447;52.140;5.602;2023-11-19T02:11:41;30.38;;;7.38;;
35592;SDS011;64447;52.140;5.602;2023-11-19T02:14:07;26.35;;;6.85;;
35592;SDS011;64447;52.140;5.602;2023-11-19T02:16:32;26.60;;;6.72;;
35592;SDS011;64447;52.140;5.602;2023-11-19T02:18:58;26.73;;;7.50;;
35592;SDS011;64447;52.140;5.602;2023-11-19T02:21:24;33.33;;;7.70;;
35592;SDS011;64447;52.140;5.602;2023-11-19T02:23:49;27.92;;;8.27;;
35592;SDS011;64447;52.140;5.602;2023-11-19T02:26:22;35.03;;;8.40;;
35592;SDS011;64447;52.140;5.602;2023-11-19T02:28:58;31.52;;;8.05;;
35592;SDS011;64447;52.140;5.602;2023-11-19T02:31:24;34.42;;;7.22;;
35592;SDS011;64447;52.140;5.602;2023-11-19T02:33:49;32.40;;;7.07;;
35592;SDS011;64447;52.140;5.602;2023-11-19T02:36:15;26.67;;;6.88;;
35592;SDS011;64447;52.140;5.602;2023-11-19T02:38:41;38.20;;;7.13;;
35592;SDS011;64447;52.140;5.602;2023-11-19T02:41:07;32.42;;;6.75;;
35592;SDS011;64447;52.140;5.602;2023-11-19T02:43:34;37.88;;;7.78;;
35592;SDS011;64447;52.140;5.602;2023-11-19T02:46:04;33.40;;;6.97;;
35592;SDS011;64447;52.140;5.602;2023-11-19T02:48:34;37.10;;;8.30;;
35592;SDS011;64447;52.140;5.602;2023-11-19T02:51:03;32.13;;;8.75;;
35592;SDS011;64447;52.140;5.602;2023-11-19T02:53:29;33.33;;;7.70;;
35592;SDS011;64447;52.140;5.602;2023-11-19T02:55:56;34.08;;;8.90;;
35592;SDS011;64447;52.140;5.602;2023-11-19T02:58:36;33.53;;;8.48;;
35592;SDS011;64447;52.140;5.602;2023-11-19T03:01:03;32.65;;;7.63;;
35592;SDS011;64447;52.140;5.602;2023-11-19T03:03:37;35.00;;;7.63;;
35592;SDS011;64447;52.140;5.602;2023-11-19T03:06:05;35.00;;;8.43;;
35592;SDS011;64447;52.140;5.602;2023-11-19T03:08:31;35.15;;;7.95;;
35592;SDS011;64447;52.140;5.602;2023-11-19T03:10:58;35.42;;;8.82;;
35592;SDS011;64447;52.140;5.602;2023-11-19T03:13:24;36.25;;;9.50;;
35592;SDS011;64447;52.140;5.602;2023-11-19T03:15:50;37.90;;;8.63;;
35592;SDS011;64447;52.140;5.602;2023-11-19T03:18:16;30.33;;;7.50;;
35592;SDS011;64447;52.140;5.602;2023-11-19T03:20:42;39.35;;;9.00;;
35592;SDS011;64447;52.140;5.602;2023-11-19T03:23:07;40.47;;;9.20;;
35592;SDS011;64447;52.140;5.602;2023-11-19T03:25:33;31.88;;;7.93;;
35592;SDS011;64447;52.140;5.602;2023-11-19T03:27:59;35.60;;;8.30;;
35592;SDS011;64447;52.140;5.602;2023-11-19T03:30:28;39.55;;;9.45;;
35592;SDS011;64447;52.140;5.602;2023-11-19T03:32:55;39.33;;;9.85;;
35592;SDS011;64447;52.140;5.602;2023-11-19T03:35:22;32.78;;;8.65;;
35592;SDS011;64447;52.140;5.602;2023-11-19T03:37:50;36.85;;;8.38;;
35592;SDS011;64447;52.140;5.602;2023-11-19T03:40:16;36.45;;;8.63;;
35592;SDS011;64447;52.140;5.602;2023-11-19T03:42:43;39.70;;;8.95;;
35592;SDS011;64447;52.140;5.602;2023-11-19T03:45:12;37.75;;;8.85;;
35592;SDS011;64447;52.140;5.602;2023-11-19T03:47:38;42.42;;;9.30;;
35592;SDS011;64447;52.140;5.602;2023-11-19T03:50:04;33.80;;;7.85;;
35592;SDS011;64447;52.140;5.602;2023-11-19T03:52:30;36.10;;;8.95;;
35592;SDS011;64447;52.140;5.602;2023-11-19T03:54:56;43.45;;;9.02;;
35592;SDS011;64447;52.140;5.602;2023-11-19T03:57:22;43.78;;;8.63;;
35592;SDS011;64447;52.140;5.602;2023-11-19T03:59:48;37.55;;;8.48;;
35592;SDS011;64447;52.140;5.602;2023-11-19T04:02:14;39.85;;;9.23;;
35592;SDS011;64447;52.140;5.602;2023-11-19T04:04:41;38.22;;;9.05;;
35592;SDS011;64447;52.140;5.602;2023-11-19T04:07:06;40.38;;;8.23;;
35592;SDS011;64447;52.140;5.602;2023-11-19T04:09:32;41.05;;;8.55;;
35592;SDS011;64447;52.140;5.602;2023-11-19T04:11:58;44.38;;;8.55;;
35592;SDS011;64447;52.140;5.602;2023-11-19T04:14:25;37.67;;;9.65;;
35592;SDS011;64447;52.140;5.602;2023-11-19T04:16:51;35.47;;;7.43;;
35592;SDS011;64447;52.140;5.602;2023-11-19T04:19:17;32.10;;;8.77;;
35592;SDS011;64447;52.140;5.602;2023-11-19T04:21:43;35.47;;;8.70;;
35592;SDS011;64447;52.140;5.602;2023-11-19T04:24:09;31.27;;;8.77;;
35592;SDS011;64447;52.140;5.602;2023-11-19T04:26:42;37.20;;;8.90;;
35592;SDS011;64447;52.140;5.602;2023-11-19T04:29:14;40.92;;;9.02;;
35592;SDS011;64447;52.140;5.602;2023-11-19T04:31:42;34.40;;;7.57;;
35592;SDS011;64447;52.140;5.602;2023-11-19T04:34:12;43.67;;;8.73;;
35592;SDS011;64447;52.140;5.602;2023-11-19T04:36:37;37.55;;;8.30;;
35592;SDS011;64447;52.140;5.602;2023-11-19T04:39:04;35.05;;;8.40;;
35592;SDS011;64447;52.140;5.602;2023-11-19T04:41:34;37.78;;;8.73;;
35592;SDS011;64447;52.140;5.602;2023-11-19T04:44:00;38.75;;;8.82;;
35592;SDS011;64447;52.140;5.602;2023-11-19T04:46:26;39.72;;;8.73;;
35592;SDS011;64447;52.140;5.602;2023-11-19T04:48:51;40.28;;;8.63;;
35592;SDS011;64447;52.140;5.602;2023-11-19T04:51:17;44.95;;;9.27;;
35592;SDS011;64447;52.140;5.602;2023-11-19T04:53:43;44.42;;;9.20;;
35592;SDS011;64447;52.140;5.602;2023-11-19T04:56:09;34.08;;;8.15;;
35592;SDS011;64447;52.140;5.602;2023-11-19T04:58:35;39.97;;;8.45;;
35592;SDS011;64447;52.140;5.602;2023-11-19T05:01:02;32.35;;;9.00;;
35592;SDS011;64447;52.140;5.602;2023-11-19T05:03:28;34.92;;;8.65;;
35592;SDS011;64447;52.140;5.602;2023-11-19T05:05:54;41.17;;;8.32;;
35592;SDS011;64447;52.140;5.602;2023-11-19T05:08:20;42.85;;;10.02;;
35592;SDS011;64447;52.140;5.602;2023-11-19T05:10:45;34.92;;;7.78;;
35592;SDS011;64447;52.140;5.602;2023-11-19T05:13:11;43.42;;;8.55;;
35592;SDS011;64447;52.140;5.602;2023-11-19T05:15:37;35.50;;;7.97;;
35592;SDS011;64447;52.140;5.602;2023-11-19T05:18:03;39.40;;;9.82;;
35592;SDS011;64447;52.140;5.602;2023-11-19T05:20:29;37.28;;;8.85;;
35592;SDS011;64447;52.140;5.602;2023-11-19T05:22:55;34.38;;;8.32;;
35592;SDS011;64447;52.140;5.602;2023-11-19T05:25:21;33.75;;;9.57;;
35592;SDS011;64447;52.140;5.602;2023-11-19T05:27:46;40.95;;;8.75;;
35592;SDS011;64447;52.140;5.602;2023-11-19T05:30:12;43.22;;;9.30;;
35592;SDS011;64447;52.140;5.602;2023-11-19T05:32:38;40.80;;;9.05;;
35592;SDS011;64447;52.140;5.602;2023-11-19T05:35:03;31.65;;;7.95;;
35592;SDS011;64447;52.140;5.602;2023-11-19T05:37:29;38.17;;;8.15;;
35592;SDS011;64447;52.140;5.602;2023-11-19T05:39:55;46.40;;;9.70;;
35592;SDS011;64447;52.140;5.602;2023-11-19T05:42:21;38.60;;;8.85;;
35592;SDS011;64447;52.140;5.602;2023-11-19T05:44:46;34.15;;;8.93;;
35592;SDS011;64447;52.140;5.602;2023-11-19T05:47:12;43.22;;;9.73;;
35592;SDS011;64447;52.140;5.602;2023-11-19T05:49:38;35.47;;;9.02;;
35592;SDS011;64447;52.140;5.602;2023-11-19T05:52:03;44.35;;;9.88;;
35592;SDS011;64447;52.140;5.602;2023-11-19T05:54:32;38.58;;;8.40;;
35592;SDS011;64447;52.140;5.602;2023-11-19T05:57:02;34.08;;;8.40;;
35592;SDS011;64447;52.140;5.602;2023-11-19T05:59:34;42.72;;;10.30;;
35592;SDS011;64447;52.140;5.602;2023-11-19T06:02:01;44.40;;;9.15;;
35592;SDS011;64447;52.140;5.602;2023-11-19T06:04:27;35.92;;;8.18;;
35592;SDS011;64447;52.140;5.602;2023-11-19T06:06:53;43.53;;;9.52;;
35592;SDS011;64447;52.140;5.602;2023-11-19T06:09:20;37.40;;;8.05;;
35592;SDS011;64447;52.140;5.602;2023-11-19T06:11:47;33.85;;;8.40;;
35592;SDS011;64447;52.140;5.602;2023-11-19T06:14:14;41.47;;;9.40;;
35592;SDS011;64447;52.140;5.602;2023-11-19T06:16:40;38.78;;;9.38;;
35592;SDS011;64447;52.140;5.602;2023-11-19T06:19:05;44.58;;;9.48;;
35592;SDS011;64447;52.140;5.602;2023-11-19T06:21:31;34.85;;;9.07;;
35592;SDS011;64447;52.140;5.602;2023-11-19T06:23:56;38.53;;;7.97;;
35592;SDS011;64447;52.140;5.602;2023-11-19T06:26:23;42.65;;;9.65;;
35592;SDS011;64447;52.140;5.602;2023-11-19T06:28:49;37.15;;;8.48;;
35592;SDS011;64447;52.140;5.602;2023-11-19T06:31:14;39.38;;;8.20;;
35592;SDS011;64447;52.140;5.602;2023-11-19T06:33:41;35.65;;;9.02;;
35592;SDS011;64447;52.140;5.602;2023-11-19T06:36:07;46.50;;;9.20;;
35592;SDS011;64447;52.140;5.602;2023-11-19T06:38:34;42.70;;;8.88;;
35592;SDS011;64447;52.140;5.602;2023-11-19T06:41:00;33.30;;;8.18;;
35592;SDS011;64447;52.140;5.602;2023-11-19T06:43:26;49.85;;;9.73;;
35592;SDS011;64447;52.140;5.602;2023-11-19T06:45:53;37.05;;;9.88;;
35592;SDS011;64447;52.140;5.602;2023-11-19T06:48:19;42.40;;;9.65;;
35592;SDS011;64447;52.140;5.602;2023-11-19T06:50:44;41.47;;;9.20;;
35592;SDS011;64447;52.140;5.602;2023-11-19T06:53:10;34.10;;;8.55;;
35592;SDS011;64447;52.140;5.602;2023-11-19T06:55:36;38.85;;;8.48;;
35592;SDS011;64447;52.140;5.602;2023-11-19T06:58:02;40.83;;;9.85;;
35592;SDS011;64447;52.140;5.602;2023-11-19T07:00:28;36.83;;;8.27;;
35592;SDS011;64447;52.140;5.602;2023-11-19T07:02:54;41.40;;;9.57;;
35592;SDS011;64447;52.140;5.602;2023-11-19T07:05:20;43.50;;;10.15;;
35592;SDS011;64447;52.140;5.602;2023-11-19T07:07:46;36.00;;;8.43;;
35592;SDS011;64447;52.140;5.602;2023-11-19T07:10:12;34.95;;;7.93;;
35592;SDS011;64447;52.140;5.602;2023-11-19T07:12:37;39.13;;;8.90;;
35592;SDS011;64447;52.140;5.602;2023-11-19T07:15:03;34.55;;;8.75;;
35592;SDS011;64447;52.140;5.602;2023-11-19T07:17:30;41.47;;;9.52;;
35592;SDS011;64447;52.140;5.602;2023-11-19T07:19:56;38.35;;;8.18;;
35592;SDS011;64447;52.140;5.602;2023-11-19T07:22:24;37.22;;;9.05;;
35592;SDS011;64447;52.140;5.602;2023-11-19T07:24:50;43.63;;;8.48;;
35592;SDS011;64447;52.140;5.602;2023-11-19T07:27:16;39.13;;;8.85;;
35592;SDS011;64447;52.140;5.602;2023-11-19T07:29:43;47.72;;;9.40;;
35592;SDS011;64447;52.140;5.602;2023-11-19T07:32:09;39.55;;;8.98;;
35592;SDS011;64447;52.140;5.602;2023-11-19T07:34:35;51.85;;;9.15;;
35592;SDS011;64447;52.140;5.602;2023-11-19T07:37:01;38.60;;;8.90;;
35592;SDS011;64447;52.140;5.602;2023-11-19T07:39:28;36.90;;;7.90;;
35592;SDS011;64447;52.140;5.602;2023-11-19T07:41:54;38.50;;;8.57;;
35592;SDS011;64447;52.140;5.602;2023-11-19T07:44:20;32.83;;;8.88;;
35592;SDS011;64447;52.140;5.602;2023-11-19T07:46:46;47.42;;;9.75;;
35592;SDS011;64447;52.140;5.602;2023-11-19T07:49:13;37.42;;;8.32;;
35592;SDS011;64447;52.140;5.602;2023-11-19T07:51:39;34.63;;;8.88;;
35592;SDS011;64447;52.140;5.602;2023-11-19T07:54:04;40.38;;;8.60;;
35592;SDS011;64447;52.140;5.602;2023-11-19T07:56:31;47.00;;;9.13;;
35592;SDS011;64447;52.140;5.602;2023-11-19T07:58:59;35.22;;;8.27;;
35592;SDS011;64447;52.140;5.602;2023-11-19T08:01:25;35.97;;;8.18;;
35592;SDS011;64447;52.140;5.602;2023-11-19T08:03:50;39.45;;;9.02;;
35592;SDS011;64447;52.140;5.602;2023-11-19T08:06:16;42.05;;;8.70;;
35592;SDS011;64447;52.140;5.602;2023-11-19T08:08:41;48.85;;;9.25;;
35592;SDS011;64447;52.140;5.602;2023-11-19T08:11:07;35.40;;;8.05;;
35592;SDS011;64447;52.140;5.602;2023-11-19T08:13:33;42.28;;;8.82;;
35592;SDS011;64447;52.140;5.602;2023-11-19T08:15:59;34.75;;;8.43;;
35592;SDS011;64447;52.140;5.602;2023-11-19T08:18:24;46.83;;;9.32;;
35592;SDS011;64447;52.140;5.602;2023-11-19T08:20:50;37.22;;;8.00;;
35592;SDS011;64447;52.140;5.602;2023-11-19T08:23:18;36.88;;;9.60;;
35592;SDS011;64447;52.140;5.602;2023-11-19T08:25:44;37.15;;;9.35;;
35592;SDS011;64447;52.140;5.602;2023-11-19T08:28:10;39.08;;;9.57;;
35592;SDS011;64447;52.140;5.602;2023-11-19T08:30:36;38.30;;;9.30;;
35592;SDS011;64447;52.140;5.602;2023-11-19T08:33:01;37.50;;;8.70;;
35592;SDS011;64447;52.140;5.602;2023-11-19T08:35:31;34.65;;;9.75;;
35592;SDS011;64447;52.140;5.602;2023-11-19T08:37:57;31.63;;;8.00;;
35592;SDS011;64447;52.140;5.602;2023-11-19T08:40:24;37.35;;;8.07;;
35592;SDS011;64447;52.140;5.602;2023-11-19T08:42:53;36.67;;;8.68;;
35592;SDS011;64447;52.140;5.602;2023-11-19T08:45:18;37.28;;;8.77;;
35592;SDS011;64447;52.140;5.602;2023-11-19T08:47:44;38.53;;;8.68;;
35592;SDS011;64447;52.140;5.602;2023-11-19T08:50:10;39.55;;;8.32;;
35592;SDS011;64447;52.140;5.602;2023-11-19T08:52:36;31.00;;;7.03;;
35592;SDS011;64447;52.140;5.602;2023-11-19T08:55:02;36.50;;;8.07;;
35592;SDS011;64447;52.140;5.602;2023-11-19T08:57:28;31.45;;;7.82;;
35592;SDS011;64447;52.140;5.602;2023-11-19T08:59:53;32.63;;;7.82;;
35592;SDS011;64447;52.140;5.602;2023-11-19T09:02:19;30.83;;;7.68;;
35592;SDS011;64447;52.140;5.602;2023-11-19T09:04:45;34.78;;;8.15;;
35592;SDS011;64447;52.140;5.602;2023-11-19T09:07:10;32.10;;;7.82;;
35592;SDS011;64447;52.140;5.602;2023-11-19T09:09:36;44.38;;;9.48;;
35592;SDS011;64447;52.140;5.602;2023-11-19T09:12:02;31.98;;;7.75;;
35592;SDS011;64447;52.140;5.602;2023-11-19T09:14:31;35.05;;;8.10;;
35592;SDS011;64447;52.140;5.602;2023-11-19T09:16:56;29.42;;;7.13;;
35592;SDS011;64447;52.140;5.602;2023-11-19T09:19:23;36.53;;;8.30;;
35592;SDS011;64447;52.140;5.602;2023-11-19T09:21:49;33.97;;;7.57;;
35592;SDS011;64447;52.140;5.602;2023-11-19T09:24:15;38.55;;;7.30;;
35592;SDS011;64447;52.140;5.602;2023-11-19T09:26:40;33.58;;;7.82;;
35592;SDS011;64447;52.140;5.602;2023-11-19T09:29:09;39.28;;;8.98;;
35592;SDS011;64447;52.140;5.602;2023-11-19T09:31:35;34.33;;;8.18;;
35592;SDS011;64447;52.140;5.602;2023-11-19T09:34:03;36.83;;;8.27;;
35592;SDS011;64447;52.140;5.602;2023-11-19T09:36:28;43.72;;;8.32;;
35592;SDS011;64447;52.140;5.602;2023-11-19T09:38:54;31.67;;;8.23;;
35592;SDS011;64447;52.140;5.602;2023-11-19T09:41:19;30.58;;;7.22;;
35592;SDS011;64447;52.140;5.602;2023-11-19T09:43:45;35.22;;;7.65;;
35592;SDS011;64447;52.140;5.602;2023-11-19T09:46:12;37.50;;;8.73;;
35592;SDS011;64447;52.140;5.602;2023-11-19T09:48:40;40.88;;;8.75;;
35592;SDS011;64447;52.140;5.602;2023-11-19T09:51:07;33.25;;;8.45;;
35592;SDS011;64447;52.140;5.602;2023-11-19T09:53:36;35.97;;;8.82;;
35592;SDS011;64447;52.140;5.602;2023-11-19T09:56:03;30.42;;;7.57;;
35592;SDS011;64447;52.140;5.602;2023-11-19T09:58:30;26.90;;;7.60;;
35592;SDS011;64447;52.140;5.602;2023-11-19T10:00:59;28.30;;;7.75;;
35592;SDS011;64447;52.140;5.602;2023-11-19T10:03:35;43.05;;;9.52;;
35592;SDS011;64447;52.140;5.602;2023-11-19T10:06:06;34.90;;;8.48;;
35592;SDS011;64447;52.140;5.602;2023-11-19T10:08:32;32.85;;;8.70;;
35592;SDS011;64447;52.140;5.602;2023-11-19T10:10:58;37.60;;;7.82;;
35592;SDS011;64447;52.140;5.602;2023-11-19T10:13:30;41.38;;;11.52;;
35592;SDS011;64447;52.140;5.602;2023-11-19T10:15:56;28.38;;;7.32;;
35592;SDS011;64447;52.140;5.602;2023-11-19T10:18:25;40.25;;;8.50;;
35592;SDS011;64447;52.140;5.602;2023-11-19T10:20:51;33.42;;;7.93;;
35592;SDS011;64447;52.140;5.602;2023-11-19T10:23:17;32.67;;;9.05;;
35592;SDS011;64447;52.140;5.602;2023-11-19T10:25:43;32.97;;;7.00;;
35592;SDS011;64447;52.140;5.602;2023-11-19T10:28:09;32.88;;;8.15;;
35592;SDS011;64447;52.140;5.602;2023-11-19T10:30:34;32.28;;;6.93;;
35592;SDS011;64447;52.140;5.602;2023-11-19T10:35:32;34.72;;;7.40;;
35592;SDS011;64447;52.140;5.602;2023-11-19T10:38:14;28.92;;;7.70;;
35592;SDS011;64447;52.140;5.602;2023-11-19T10:40:40;35.20;;;7.28;;
35592;SDS011;64447;52.140;5.602;2023-11-19T10:43:07;30.25;;;7.57;;
35592;SDS011;64447;52.140;5.602;2023-11-19T10:45:33;39.45;;;9.70;;
35592;SDS011;64447;52.140;5.602;2023-11-19T10:48:06;29.48;;;7.43;;
35592;SDS011;64447;52.140;5.602;2023-11-19T10:50:35;31.27;;;8.30;;
35592;SDS011;64447;52.140;5.602;2023-11-19T10:53:02;33.78;;;8.40;;
35592;SDS011;64447;52.140;5.602;2023-11-19T10:55:31;24.55;;;6.82;;
35592;SDS011;64447;52.140;5.602;2023-11-19T10:58:00;33.97;;;8.57;;
35592;SDS011;64447;52.140;5.602;2023-11-19T11:00:31;36.78;;;8.63;;
35592;SDS011;64447;52.140;5.602;2023-11-19T11:03:05;29.98;;;7.95;;
35592;SDS011;64447;52.140;5.602;2023-11-19T11:05:36;34.35;;;8.93;;
35592;SDS011;64447;52.140;5.602;2023-11-19T11:08:04;28.20;;;7.72;;
35592;SDS011;64447;52.140;5.602;2023-11-19T11:10:32;33.47;;;7.30;;
35592;SDS011;64447;52.140;5.602;2023-11-19T11:13:04;30.48;;;6.95;;
35592;SDS011;64447;52.140;5.602;2023-11-19T11:15:31;27.10;;;5.93;;
35592;SDS011;64447;52.140;5.602;2023-11-19T11:18:00;29.00;;;7.10;;
35592;SDS011;64447;52.140;5.602;2023-11-19T11:20:32;27.65;;;7.43;;
35592;SDS011;64447;52.140;5.602;2023-11-19T11:28:52;26.25;;;7.45;;
35592;SDS011;64447;52.140;5.602;2023-11-19T11:37:17;30.30;;;7.60;;
35592;SDS011;64447;52.140;5.602;2023-11-19T11:39:46;35.33;;;8.75;;
35592;SDS011;64447;52.140;5.602;2023-11-19T11:48:06;23.77;;;6.60;;
35592;SDS011;64447;52.140;5.602;2023-11-19T11:50:35;26.40;;;7.05;;
35592;SDS011;64447;52.140;5.602;2023-11-19T11:53:20;26.00;;;7.20;;
35592;SDS011;64447;52.140;5.602;2023-11-19T11:58:18;25.80;;;7.30;;
35592;SDS011;64447;52.140;5.602;2023-11-19T12:00:51;31.55;;;7.07;;
35592;SDS011;64447;52.140;5.602;2023-11-19T12:03:19;30.77;;;8.13;;
35592;SDS011;64447;52.140;5.602;2023-11-19T12:05:49;29.42;;;7.13;;
35592;SDS011;64447;52.140;5.602;2023-11-19T12:08:15;31.35;;;7.35;;
35592;SDS011;64447;52.140;5.602;2023-11-19T12:10:52;27.38;;;7.15;;
35592;SDS011;64447;52.140;5.602;2023-11-19T12:13:25;30.98;;;6.60;;
35592;SDS011;64447;52.140;5.602;2023-11-19T12:16:09;33.92;;;7.03;;
35592;SDS011;64447;52.140;5.602;2023-11-19T12:18:36;30.52;;;6.93;;
35592;SDS011;64447;52.140;5.602;2023-11-19T12:21:04;23.60;;;5.72;;
35592;SDS011;64447;52.140;5.602;2023-11-19T12:23:30;34.45;;;7.43;;
35592;SDS011;64447;52.140;5.602;2023-11-19T12:25:57;25.73;;;6.60;;
35592;SDS011;64447;52.140;5.602;2023-11-19T12:28:23;32.00;;;7.85;;
35592;SDS011;64447;52.140;5.602;2023-11-19T12:30:51;22.02;;;5.80;;
35592;SDS011;64447;52.140;5.602;2023-11-19T12:33:18;17.67;;;5.93;;
35592;SDS011;64447;52.140;5.602;2023-11-19T12:35:47;20.02;;;5.57;;
35592;SDS011;64447;52.140;5.602;2023-11-19T12:38:23;21.58;;;5.75;;
35592;SDS011;64447;52.140;5.602;2023-11-19T12:41:05;22.02;;;4.95;;
35592;SDS011;64447;52.140;5.602;2023-11-19T12:43:32;24.52;;;6.30;;
35592;SDS011;64447;52.140;5.602;2023-11-19T12:45:59;23.00;;;6.32;;
35592;SDS011;64447;52.140;5.602;2023-11-19T12:48:25;27.27;;;5.82;;
35592;SDS011;64447;52.140;5.602;2023-11-19T12:53:23;23.95;;;6.47;;
35592;SDS011;64447;52.140;5.602;2023-11-19T12:55:53;23.05;;;6.07;;
35592;SDS011;64447;52.140;5.602;2023-11-19T12:58:32;21.20;;;5.75;;
35592;SDS011;64447;52.140;5.602;2023-11-19T13:01:06;29.65;;;6.82;;
35592;SDS011;64447;52.140;5.602;2023-11-19T13:03:33;26.55;;;6.72;;
35592;SDS011;64447;52.140;5.602;2023-11-19T13:08:37;27.58;;;6.10;;
35592;SDS011;64447;52.140;5.602;2023-11-19T13:11:10;28.50;;;6.45;;
35592;SDS011;64447;52.140;5.602;2023-11-19T13:16:22;27.02;;;6.70;;
35592;SDS011;64447;52.140;5.602;2023-11-19T13:18:48;29.15;;;7.00;;
35592;SDS011;64447;52.140;5.602;2023-11-19T13:21:13;24.02;;;5.88;;
35592;SDS011;64447;52.140;5.602;2023-11-19T13:23:39;23.15;;;6.03;;
35592;SDS011;64447;52.140;5.602;2023-11-19T13:26:05;21.25;;;6.03;;
35592;SDS011;64447;52.140;5.602;2023-11-19T13:28:31;26.05;;;7.25;;
35592;SDS011;64447;52.140;5.602;2023-11-19T13:30:57;25.67;;;7.40;;
35592;SDS011;64447;52.140;5.602;2023-11-19T13:33:23;29.98;;;6.78;;
35592;SDS011;64447;52.140;5.602;2023-11-19T13:35:48;28.83;;;7.43;;
35592;SDS011;64447;52.140;5.602;2023-11-19T13:38:14;27.45;;;6.88;;
35592;SDS011;64447;52.140;5.602;2023-11-19T13:40:39;27.08;;;6.65;;
35592;SDS011;64447;52.140;5.602;2023-11-19T13:43:05;18.75;;;6.53;;
35592;SDS011;64447;52.140;5.602;2023-11-19T13:45:32;25.80;;;7.10;;
35592;SDS011;64447;52.140;5.602;2023-11-19T13:47:58;31.08;;;7.47;;
35592;SDS011;64447;52.140;5.602;2023-11-19T13:50:23;24.38;;;6.53;;
35592;SDS011;64447;52.140;5.602;2023-11-19T13:52:49;33.85;;;6.95;;
35592;SDS011;64447;52.140;5.602;2023-11-19T13:55:18;32.08;;;6.70;;
35592;SDS011;64447;52.140;5.602;2023-11-19T13:57:43;32.35;;;7.20;;
35592;SDS011;64447;52.140;5.602;2023-11-19T14:00:10;30.95;;;7.95;;
35592;SDS011;64447;52.140;5.602;2023-11-19T14:02:47;26.20;;;7.28;;
35592;SDS011;64447;52.140;5.602;2023-11-19T14:05:13;22.52;;;6.30;;
35592;SDS011;64447;52.140;5.602;2023-11-19T14:07:42;24.92;;;5.85;;
35592;SDS011;64447;52.140;5.602;2023-11-19T14:10:08;25.20;;;6.70;;
35592;SDS011;64447;52.140;5.602;2023-11-19T14:12:36;22.77;;;6.03;;
35592;SDS011;64447;52.140;5.602;2023-11-19T14:15:05;32.00;;;6.38;;
35592;SDS011;64447;52.140;5.602;2023-11-19T14:17:32;22.55;;;6.90;;
35592;SDS011;64447;52.140;5.602;2023-11-19T14:19:59;20.27;;;7.10;;
35592;SDS011;64447;52.140;5.602;2023-11-19T14:22:24;27.80;;;6.72;;
35592;SDS011;64447;52.140;5.602;2023-11-19T14:24:50;27.35;;;6.65;;
35592;SDS011;64447;52.140;5.602;2023-11-19T14:27:16;25.70;;;6.43;;
35592;SDS011;64447;52.140;5.602;2023-11-19T14:29:44;19.85;;;5.60;;
35592;SDS011;64447;52.140;5.602;2023-11-19T14:32:10;29.60;;;5.97;;
35592;SDS011;64447;52.140;5.602;2023-11-19T14:34:36;26.90;;;7.43;;
35592;SDS011;64447;52.140;5.602;2023-11-19T14:37:02;30.35;;;10.13;;
35592;SDS011;64447;52.140;5.602;2023-11-19T14:39:28;24.95;;;6.85;;
35592;SDS011;64447;52.140;5.602;2023-11-19T14:41:56;22.80;;;6.80;;
35592;SDS011;64447;52.140;5.602;2023-11-19T14:44:25;27.23;;;7.55;;
35592;SDS011;64447;52.140;5.602;2023-11-19T14:46:52;26.42;;;7.88;;
35592;SDS011;64447;52.140;5.602;2023-11-19T14:49:17;24.52;;;7.38;;
35592;SDS011;64447;52.140;5.602;2023-11-19T14:51:43;26.92;;;7.65;;
35592;SDS011;64447;52.140;5.602;2023-11-19T14:54:08;26.63;;;5.80;;
35592;SDS011;64447;52.140;5.602;2023-11-19T14:56:34;30.83;;;7.45;;
35592;SDS011;64447;52.140;5.602;2023-11-19T14:59:00;32.00;;;7.18;;
35592;SDS011;64447;52.140;5.602;2023-11-19T15:01:25;22.52;;;6.57;;
35592;SDS011;64447;52.140;5.602;2023-11-19T15:03:53;23.33;;;6.45;;